• Join FlightAware (Why Join?)
  • Login
  • US Flag 
08:10AM EDT


 

Airport Tracker/Info


-or-


 

Live Flight TrackerFlight Track Log ✈ N30JC ✈ 04-May-2013 ✈ KROA - KSMS

Flight Track Log - Related Links

Times and Time Zones

All times are in EDT time to prevent confusion due to time zone crossing. See the N30JC flight status page for this flight to view local times or setup timezone preferences in your user account.

Time Position Orientation Groundspeed Altitude Reporting Facility
EDT Latitude Longitude Course Direction KTS MPH feet Rate Location/Type
07:26AM 37.0660 -80.0236 193° South  Level FlightAware Approximate
07:27AM 37.0237 -80.0328 177° South  Level FlightAware Approximate
07:28AM 36.9806 -80.0302 177° South  Level FlightAware Approximate
07:29AM 36.9374 -80.0277 177° South  Level FlightAware Approximate
07:30AM 36.8943 -80.0251 177° South  Level FlightAware Approximate
07:31AM 36.8511 -80.0226 177° South  Level FlightAware Approximate
07:32AM 36.8080 -80.0201 177° South  Level FlightAware Approximate
07:33AM 36.7649 -80.0175 177° South  Level FlightAware Approximate
07:34AM 36.7217 -80.0167 180° South  Level FlightAware Approximate
07:35AM 36.6786 -80.0143 177° South  Level FlightAware Approximate
07:36AM 36.6354 -80.0116 177° South  Level FlightAware Approximate
07:37AM 36.5923 -80.0089 177° South  Level FlightAware Approximate
07:38AM 36.5492 -80.0062 177° South  Level FlightAware Approximate
07:39AM 36.5060 -80.0035 177° South  Level FlightAware Approximate
07:40AM 36.4629 -80.0008 177° South  Level FlightAware Approximate
07:41AM 36.4199 -79.9962 174° South  Level FlightAware Approximate
07:42AM 36.3769 -79.9909 174° South  Level FlightAware Approximate
07:43AM 36.3339 -79.9855 174° South  Level FlightAware Approximate
07:44AM 36.2909 -79.9818 177° South  Level FlightAware Approximate
07:45AM 36.2477 -79.9793 177° South  Level FlightAware Approximate
07:46AM 36.2046 -79.9767 177° South  Level FlightAware Approximate
07:47AM 36.1614 -79.9742 177° South  Level FlightAware Approximate
07:48AM 36.1183 -79.9716 177° South  Level FlightAware Approximate
07:49AM 36.0751 -79.9691 177° South  Level FlightAware Approximate
07:50AM 36.0320 -79.9670 191° South  Level FlightAware Approximate
07:51AM 35.9897 -79.9776 191° South  Level FlightAware Approximate
07:52AM 35.9474 -79.9882 191° South  Level FlightAware Approximate
07:53AM 35.9051 -79.9988 191° South  Level FlightAware Approximate
07:54AM 35.8627 -80.0094 191° South  Level FlightAware Approximate
07:55AM 35.8204 -80.0200 191° South  Level FlightAware Approximate
07:56AM 35.7781 -80.0305 191° South  Level FlightAware Approximate
07:57AM 35.7357 -80.0411 191° South  Level FlightAware Approximate
07:58AM 35.6934 -80.0513 189° South  Level FlightAware Approximate
07:59AM 35.6507 -80.0599 189° South  Level FlightAware Approximate
08:00AM 35.6081 -80.0684 189° South  Level FlightAware Approximate
08:01AM 35.5655 -80.0770 189° South  Level FlightAware Approximate
08:02AM 35.5229 -80.0855 189° South  Level FlightAware Approximate
08:02AM 35.6622 -80.0617 192° South 147 169 6,000  Level Atlanta Center
08:03AM 35.4802 -80.0940 189° South  Level FlightAware Approximate
08:03AM 35.6103 -80.0717 189° South 148 170 6,000  Level Atlanta Center
08:04AM 35.4375 -80.1000 180° South  Level FlightAware Approximate
08:04AM 35.5711 -80.0839 194° South 146 168 6,000  Level Atlanta Center
08:05AM 35.3944 -80.1014 192° South  Level FlightAware Approximate
08:05AM 35.5317 -80.0908 188° South 148 170 6,000  Level Atlanta Center
08:06AM 35.3521 -80.1120 192° South  Level FlightAware Approximate
08:06AM 35.4881 -80.0981 188° South 147 169 6,000  Level Atlanta Center
08:07AM 35.3097 -80.1226 192° South  Level FlightAware Approximate
08:07AM 35.4489 -80.1103 194° South 146 168 6,000  Level Atlanta Center
08:08AM 35.4053 -80.1147 185° South 147 169 6,000  Level Atlanta Center
08:09AM 35.3597 -80.1272 193° South 149 171 6,000  Level Atlanta Center
08:10AM 35.3181 -80.1342 188° South 149 171 6,000  Level Atlanta Center
08:11AM 35.2808 -80.1411 189° South 150 173 6,000  Level Atlanta Center
08:12AM 35.2375 -80.1533 193° South 148 170 6,000  Level Atlanta Center
08:13AM 35.1978 -80.1578 185° South 147 169 6,000  Level Atlanta Center
08:14AM 35.1544 -80.1672 190° South 148 170 6,000  Level Atlanta Center
08:15AM 35.1128 -80.1744 188° South 147 169 6,000  Level Atlanta Center
08:16AM 35.0733 -80.1814 188° South 146 168 6,000  Level Atlanta Center
08:17AM 35.0322 -80.1933 193° South 148 170 6,000  Level Atlanta Center
08:19AM 34.9776 -80.2050 190° South  Level FlightAware Approximate
08:26AM 34.6791 -80.2625 187° South  Level FlightAware Approximate
08:27AM 34.6362 -80.2690 188° South  Level FlightAware Approximate
08:28AM 34.5934 -80.2761 188° South  Level FlightAware Approximate
08:29AM 34.5507 -80.2832 188° South  Level FlightAware Approximate
08:30AM 34.5077 -80.2883 186° South  Level FlightAware Approximate
08:31AM 34.4647 -80.2934 186° South  Level FlightAware Approximate
08:32AM 34.4217 -80.2985 186° South  Level FlightAware Approximate
08:33AM 34.3787 -80.3035 186° South  Level FlightAware Approximate
08:34AM 34.3357 -80.3086 186° South  Level FlightAware Approximate
08:35AM 34.2927 -80.3136 186° South  Level FlightAware Approximate
08:36AM 34.2497 -80.3167 180° South  Level FlightAware Approximate
08:37AM 34.2071 -80.3232 192° South  Level FlightAware Approximate
08:38AM 34.1647 -80.3333 180° South  Level FlightAware Approximate
08:39AM 34.1219 -80.3390 189° South  Level FlightAware Approximate
08:40AM 34.0793 -80.3475 189° South  Level FlightAware Approximate
08:41AM 34.0363 -80.3500 180° South  Level FlightAware Approximate
08:42AM 33.9931 -80.3500 180° South  Level FlightAware Approximate
08:43AM 33.9833 -80.3500 180° South  Level FlightAware Approximate
08:44AM 33.9950 -80.3613 180° South  Level Estimated